Tiempo atmosférico en la estación meteorológica de Torremolinos, Málaga (85 m.)



Fecha
DESCASC
Temp. máxima en grados centígrados (hora)
DESCASC
Temp. mínima en grados centígrados (hora)
DESCASC
Temp. media en grados centígrados
DESCASC
Racha de viento máxima en m/sg (hora)
DESCASC
Velocidad máxima media en intervalos de 10 minutos(hora)
DESCASC
Precipitaciones diarias en mm
DESCASC
Precipitaciones de 00:00 a 06:00 en mm
DESCASC
Precipitaciones de 06:00 a 12:00 en mm
DESCASC
Precipitaciones de 12:00 a 18:00 en mm
DESCASC
Precipitaciones de 18:00 a 24:00 en mm
DESCASC
30-12-2019 -- (--) -- (--) -- -- (--) -- (--) -- 0 0 0 --
19-12-2019 15.1 (15:00) 11.1 (01:00) 13.1 7.78 (23:10) 3.33 (23:30) 23.2 0 0 2.6 20.6
04-01-2020 15.1 (12:10) 10.8 (00:00) 13 8.06 (01:00) 3.06 (01:00) 0 0 0 0 0
02-01-2020 15.5 (16:40) 9.9 (00:00) 12.7 2.78 (14:40) 1.67 (15:40) 0 0 0 0 0
31-12-2019 15.7 (15:30) 9.6 (00:00) 12.7 4.17 (14:50) 2.5 (14:50) 0 0 0 0 0
05-01-2020 15.9 (14:50) 10.7 (00:00) 13.3 5.83 (02:20) 3.06 (03:20) 0 0 0 0 0
08-01-2020 16 (14:30) 8.5 (00:00) 12.3 3.61 (12:30) 1.94 (15:10) 0 0 0 0 0
13-01-2020 16 (15:40) 9 (00:00) 12.5 7.5 (23:59) 2.78 (17:10) 0 0 0 0 0
09-01-2020 16.2 (15:50) 10.2 (00:00) 13.2 4.17 (14:50) 1.94 (14:30) 0 0 0 0 0
06-01-2020 16.3 (13:10) 9.2 (00:00) 12.7 3.89 (13:50) 2.5 (15:00) 0 0 0 0 0
29-12-2019 16.4 (16:10) 11.8 (00:00) 14.1 5.28 (13:10) 2.78 (13:10) 0 0 0 0 0
12-01-2020 16.4 (14:00) 9.8 (00:00) 13.1 6.11 (15:30) 3.06 (16:40) 0 0 0 0 0
01-01-2020 16.4 (12:30) 10.4 (00:00) 13.4 4.72 (16:50) 2.78 (16:50) 0 0 0 0 0
07-01-2020 16.4 (14:30) 8.4 (00:00) 12.4 3.89 (13:50) 1.94 (13:40) 0 0 0 0 0
03-01-2020 16.5 (13:10) 9.6 (00:00) 13.1 9.17 (22:30) 3.89 (22:30) 0 0 0 0 0
14-01-2020 16.9 (16:40) 10.3 (00:00) 13.6 8.89 (23:00) 3.61 (23:30) 0 0 0 0 0
11-01-2020 17.2 (15:10) 10.9 (00:00) 14.1 5 (16:20) 2.5 (16:30) 0 0 0 0 0
16-01-2020 17.4 (15:00) 9.4 (00:00) 13.4 4.44 (18:20) 2.22 (18:10) 0 0 0 0 0
28-12-2019 17.7 (15:30) 11.3 (00:00) 14.5 4.44 (21:50) 2.5 (21:50) 0 0 0 0 0
27-12-2019 17.8 (11:30) 12.1 (00:00) 14.9 5 (12:00) 2.5 (16:30) 0 0 0 0 0
20-12-2019 18.4 (22:30) 14.8 (00:00) 16.6 12.22 (10:40) 3.89 (09:00) 35.8 13.6 8.6 13.2 0.4
15-01-2020 18.7 (15:00) 10.3 (00:00) 14.5 7.5 (00:40) 3.61 (00:40) 0 0 0 0 0
10-01-2020 18.8 (15:40) 11.5 (00:00) 15.1 10.28 (15:10) 5 (04:20) 0 0 0 0 0
17-01-2020 20.4 (13:20) 9.2 (00:00) 14.8 8.89 (23:10) 3.89 (23:00) 0 0 0 0 0
26-12-2019 20.7 (15:50) 11.4 (00:00) 16.1 3.06 (13:00) 1.67 (13:20) 0 0 0 0 0
21-12-2019 20.9 (12:10) 15.6 (00:00) 18.3 10.28 (14:50) 4.17 (14:50) 0.2 0.2 0 0 0
22-12-2019 21.9 (15:50) 14.4 (00:00) 18.1 8.06 (08:50) 3.33 (06:40) 0 0 0 0 0
24-12-2019 22.5 (14:50) 12.4 (00:00) 17.4 4.72 (11:20) 2.22 (11:20) 0 0 0 0 0
25-12-2019 23.6 (12:50) 13.4 (00:00) 18.5 2.78 (12:10) 1.94 (14:40) 0 0 0 0 0
23-12-2019 25.5 (12:10) 12.5 (00:00) 19 14.17 (08:00) 6.11 (08:10) 0 0 0 0 0

Gráficas

Temp. máximas Temp. mínimas Temp. medias Precipitaciones Rachas de viento máximas Velocidades máximas media en intervalos de 10 minutos

Datos horarios

Fecha y hora oficial Temperatura (ºC) Velocidad del viento (km/h) Dirección del viento Racha (km/h) Dirección de racha Precipitación (mm) Presión (hPa) Tendencia (hPa) Humedad (%)
2020-01-17 23:00:00 16.1 14 Noroeste 28 Noroeste 0 -- -- 46
2020-01-17 22:00:00 16 6 Norte 20 Noroeste 0 -- -- 46
2020-01-17 21:00:00 15.7 7 Noroeste 23 Noroeste 0 -- -- 54
2020-01-17 20:00:00 16.3 7 Norte 26 Norte 0 -- -- 54
2020-01-17 19:00:00 15.6 0 Calma 10 Noroeste 0 -- -- 59
2020-01-17 18:00:00 17.4 0 Calma 13 Noroeste 0 -- -- 56
2020-01-17 17:00:00 19.2 2 Norte 18 Noroeste 0 -- -- 51
2020-01-17 16:00:00 20 6 Nordeste 21 Nordeste 0 -- -- 47
2020-01-17 15:00:00 20.4 6 Nordeste 20 Este 0 -- -- 46
2020-01-17 14:00:00 20.1 10 Nordeste 24 Nordeste 0 -- -- 47
2020-01-17 13:00:00 20.3 6 Nordeste 15 Oeste 0 -- -- 44
2020-01-17 12:00:00 19.5 4 Nordeste 19 Norte 0 -- -- 38
2020-01-17 11:00:00 18.8 7 Norte 21 Norte 0 -- -- 35
2020-01-17 10:00:00 16 4 Noroeste 17 Norte 0 -- -- 36
2020-01-17 09:00:00 11.5 4 Norte 16 Norte 0 -- -- 52
2020-01-17 08:00:00 10.2 0 Calma 4 Oeste 0 -- -- 62
2020-01-17 07:00:00 10.1 0 Calma 4 Sudoeste 0 -- -- 64
2020-01-17 06:00:00 9.3 0 Calma 3 Norte 0 -- -- 65
2020-01-17 05:00:00 9.9 0 Calma 8 Sudoeste 0 -- -- 70
2020-01-17 04:00:00 9.7 0 Calma 6 Noroeste 0 -- -- 84
2020-01-17 03:00:00 9.5 0 Calma 3 Oeste 0 -- -- 81
2020-01-17 02:00:00 10.1 0 Calma 8 Sudoeste 0 -- -- 80
2020-01-17 01:00:00 10.4 2 Sudoeste 3 Oeste 0 -- -- 85
2020-01-17 00:00:00 10.5 0 Calma 3 Oeste 0 -- -- 85
2020-01-16 23:00:00 10.4 0 Calma 3 Sudoeste 0 -- -- 88
2020-01-16 22:00:00 10.5 0 Calma 2 Sudoeste 0 -- -- 86
2020-01-16 21:00:00 10.8 0 Calma 3 Sudoeste 0 -- -- 77
2020-01-16 20:00:00 11.9 0 Calma 10 Oeste 0 -- -- 75
2020-01-16 19:00:00 13 0 Calma 16 Sudoeste 0 -- -- 78
2020-01-16 18:00:00 14.7 6 Sudoeste 15 Sudoeste 0 -- -- 73
2020-01-16 17:00:00 16.6 5 Sudoeste 11 Sudoeste 0 -- -- 58
2020-01-16 16:00:00 17.2 5 Sudoeste 15 Sur 0 -- -- 61
2020-01-16 15:00:00 17.4 5 Sudoeste 13 Sur 0 -- -- 56
2020-01-16 14:00:00 16.8 5 Sur 15 Sudeste 0 -- -- 52
2020-01-16 13:00:00 17 5 Sudeste 11 Sudeste 0 -- -- 48
2020-01-16 12:00:00 17 5 Este 10 Este 0 -- -- 47
2020-01-16 11:00:00 15.9 4 Este 7 Este 0 -- -- 55
2020-01-16 10:00:00 11.6 0 Calma 3 Sudoeste 0 -- -- 74
2020-01-16 09:00:00 9.6 0 Calma 2 Oeste 0 -- -- 79
2020-01-16 08:00:00 9.4 0 Calma 2 Oeste 0 -- -- 78
2020-01-16 07:00:00 10.4 0 Calma 6 Oeste 0 -- -- 75
2020-01-16 06:00:00 10.5 0 Calma 4 Noroeste 0 -- -- 80
2020-01-16 05:00:00 9.8 0 Calma 3 Sudoeste 0 -- -- 93
2020-01-16 04:00:00 10.2 0 Calma 3 Noroeste 0 -- -- 94
2020-01-16 03:00:00 10.9 0 Calma 3 Nordeste 0 -- -- 94
2020-01-16 02:00:00 11 0 Calma 2 Noroeste 0 -- -- 92
2020-01-16 01:00:00 11.5 0 Calma 5 Nordeste 0 -- -- 91
2020-01-16 00:00:00 12.2 0 Calma 4 Noroeste 0 -- -- 91
2020-01-15 23:00:00 12.3 0 Calma 4 Norte 0 -- -- 91
2020-01-15 22:00:00 12.5 0 Calma 4 Norte 0 -- -- 88
2020-01-15 21:00:00 13.2 0 Calma 9 Norte 0 -- -- 84
2020-01-15 20:00:00 13.8 3 Norte 12 Nordeste 0 -- -- 79
2020-01-15 19:00:00 13.8 0 Calma 10 Oeste 0 -- -- 64
2020-01-15 18:00:00 15.5 4 Oeste 17 Sudoeste 0 -- -- 66
2020-01-15 17:00:00 17 7 Sudoeste 16 Oeste 0 -- -- 58
2020-01-15 16:00:00 18.4 9 Sudoeste 17 Sudoeste 0 -- -- 53
2020-01-15 15:00:00 18.7 8 Sudoeste 18 Sudoeste 0 -- -- 50
2020-01-15 14:00:00 18.3 9 Sudoeste 18 Sudoeste 0 -- -- 50
2020-01-15 13:00:00 18.3 5 Sur 11 Sudeste 0 -- -- 48
2020-01-15 12:00:00 16.8 5 Sur 9 Sur 0 -- -- 54
2020-01-15 11:00:00 15.2 4 Sudeste 6 Sudeste 0 -- -- 62
2020-01-15 10:00:00 11 0 Calma 3 Sudeste 0 -- -- 69
2020-01-15 09:00:00 10.5 0 Calma 9 Noroeste 0 -- -- 64
2020-01-15 08:00:00 12.3 4 Noroeste 12 Noroeste 0 -- -- 56
2020-01-15 07:00:00 10.3 0 Calma 4 Oeste 0 -- -- 64
2020-01-15 06:00:00 11.3 0 Calma 12 Noroeste 0 -- -- 60
2020-01-15 05:00:00 11.5 3 Noroeste 12 Norte 0 -- -- 61
2020-01-15 04:00:00 12.1 2 Sudoeste 16 Norte 0 -- -- 58
2020-01-15 03:00:00 13.5 7 Noroeste 21 Noroeste 0 -- -- 52
2020-01-15 02:00:00 13 9 Noroeste 25 Norte 0 -- -- 56
2020-01-15 01:00:00 13.2 12 Noroeste 27 Noroeste 0 -- -- 55
2020-01-15 00:00:00 13.3 12 Noroeste 29 Noroeste 0 -- -- 54
2020-01-14 23:00:00 13.5 12 Noroeste 32 Noroeste 0 -- -- 53
2020-01-14 22:00:00 12.9 6 Sur 21 Sudoeste 0 -- -- 53
2020-01-14 21:00:00 12.3 2 Noroeste 11 Noroeste 0 -- -- 56
2020-01-14 20:00:00 12.6 3 Noroeste 7 Noroeste 0 -- -- 56
2020-01-14 19:00:00 13 2 Noroeste 4 Sudoeste 0 -- -- 56
2020-01-14 18:00:00 14.6 0 Calma 13 Oeste 0 -- -- 64
2020-01-14 17:00:00 16.2 5 Sudoeste 15 Sudoeste 0 -- -- 56
2020-01-14 16:00:00 16.4 5 Sudoeste 13 Sudeste 0 -- -- 57
2020-01-14 15:00:00 15.9 8 Sudeste 13 Sur 0 -- -- 55
2020-01-14 14:00:00 15.7 6 Sudeste 14 Sudeste 0 -- -- 56
2020-01-14 13:00:00 16 8 Sudeste 15 Noroeste 0 -- -- 49
2020-01-14 12:00:00 15.7 5 Norte 15 Norte 0 -- -- 47
2020-01-14 11:00:00 15 4 Norte 19 Noroeste 0 -- -- 51
2020-01-14 10:00:00 13.2 9 Noroeste 19 Norte 0 -- -- 56
2020-01-14 09:00:00 11.8 6 Noroeste 18 Noroeste 0 -- -- 62
2020-01-14 08:00:00 11.8 6 Noroeste 21 Norte 0 -- -- 61
2020-01-14 07:00:00 11.9 6 Noroeste 17 Noroeste 0 -- -- 60
2020-01-14 06:00:00 11.8 7 Noroeste 20 Norte 0 -- -- 59
2020-01-14 05:00:00 12.1 8 Noroeste 19 Norte 0 -- -- 58
2020-01-14 04:00:00 11.6 6 Noroeste 21 Noroeste 0 -- -- 61
2020-01-14 03:00:00 10.4 0 Calma 7 Norte 0 -- -- 65
2020-01-14 02:00:00 11.9 3 Sudeste 22 Oeste 0 -- -- 59
2020-01-14 01:00:00 12.4 9 Noroeste 27 Noroeste 0 -- -- 57
2020-01-14 00:00:00 11.8 10 Noroeste 27 Noroeste 0 -- -- 67
2020-01-13 23:00:00 9.4 0 Calma 5 Oeste 0 -- -- 81
2020-01-13 22:00:00 10 0 Calma 4 Oeste 0 -- -- 82
2020-01-13 21:00:00 10 0 Calma 2 Noroeste 0 -- -- 80
2020-01-13 20:00:00 11.1 0 Calma 10 Oeste 0 -- -- 73
2020-01-13 19:00:00 12.1 4 Oeste 12 Oeste 0 -- -- 73
2020-01-13 18:00:00 13.5 5 Sudoeste 18 Sudoeste 0 -- -- 70
2020-01-13 17:00:00 15 7 Sudoeste 18 Sudoeste 0 -- -- 62
2020-01-13 16:00:00 16 6 Sur 12 Sur 0 -- -- 58
2020-01-13 15:00:00 15.5 5 Sur 15 Sudeste 0 -- -- 61
2020-01-13 14:00:00 15.4 6 Sudeste 15 Sudeste 0 -- -- 61
2020-01-13 13:00:00 15.1 6 Sudeste 13 Sudeste 0 -- -- 63
2020-01-13 12:00:00 15 5 Sudeste 15 Sudeste 0 -- -- 66
2020-01-13 11:00:00 14.2 3 Este 8 Nordeste 0 -- -- 71
2020-01-13 10:00:00 11.3 4 Nordeste 6 Nordeste 0 -- -- 92
2020-01-13 09:00:00 9.2 0 Calma 3 Noroeste 0 -- -- 94
2020-01-13 08:00:00 9.1 0 Calma 3 Noroeste 0 -- -- 94
2020-01-13 07:00:00 9.4 0 Calma 0 Calma 0 -- -- 93
2020-01-13 06:00:00 10 0 Calma 3 Noroeste 0 -- -- 94
2020-01-13 05:00:00 9.9 0 Calma 3 Noroeste 0 -- -- 94
2020-01-13 04:00:00 9.9 0 Calma 3 Noroeste 0 -- -- 93
2020-01-13 03:00:00 9.4 0 Calma 2 Oeste 0 -- -- 93
2020-01-13 02:00:00 9.5 0 Calma 2 Sudoeste 0 -- -- 92
2020-01-13 01:00:00 9.6 0 Calma 2 Oeste 0 -- -- 90
2020-01-13 00:00:00 10.1 0 Calma 2 Oeste 0 -- -- 88
2020-01-12 23:00:00 10.8 0 Calma 4 Oeste 0 -- -- 85
2020-01-12 22:00:00 11 0 Calma 4 Oeste 0 -- -- 84
2020-01-12 21:00:00 11.2 0 Calma 7 Oeste 0 -- -- 83
2020-01-12 20:00:00 11.7 3 Oeste 10 Oeste 0 -- -- 78
2020-01-12 19:00:00 12.8 5 Oeste 14 Sudoeste 0 -- -- 72
2020-01-12 18:00:00 13.8 8 Sudoeste 18 Sudoeste 0 -- -- 69
2020-01-12 17:00:00 15 10 Sudoeste 22 Sudoeste 0 -- -- 62
2020-01-12 16:00:00 16.1 8 Sudoeste 22 Oeste 0 -- -- 60
2020-01-12 15:00:00 16.2 9 Sudoeste 19 Sudoeste 0 -- -- 62
2020-01-12 14:00:00 16.4 7 Sudoeste 18 Oeste 0 -- -- 62
2020-01-12 13:00:00 16.1 6 Sur 14 Sur 0 -- -- 62
2020-01-12 12:00:00 15.9 6 Sudeste 12 Sudeste 0 -- -- 64
2020-01-12 11:00:00 14.9 5 Sudeste 8 Sudeste 0 -- -- 67
2020-01-12 10:00:00 11.1 0 Calma 2 Sudeste 0 -- -- 89
2020-01-12 09:00:00 9.8 0 Calma 6 Sudoeste 0 -- -- 89
2020-01-12 08:00:00 9.9 0 Calma 3 Oeste 0 -- -- 88
2020-01-12 07:00:00 10 2 Oeste 3 Oeste 0 -- -- 86
2020-01-12 06:00:00 10.4 2 Noroeste 4 Noroeste 0 -- -- 85
2020-01-12 05:00:00 10.5 0 Calma 2 Oeste 0 -- -- 85
2020-01-12 04:00:00 10.9 0 Calma 2 Oeste 0 -- -- 85
2020-01-12 03:00:00 10.7 0 Calma 2 Sudoeste 0 -- -- 85
2020-01-12 02:00:00 10.4 0 Calma 3 Noroeste 0 -- -- 83
2020-01-12 01:00:00 10.7 0 Calma 5 Noroeste 0 -- -- 82
2020-01-12 00:00:00 10.9 0 Calma 3 Norte 0 -- -- 84
2020-01-11 23:00:00 11.3 0 Calma 3 Sudoeste 0 -- -- 80
2020-01-11 22:00:00 11.4 0 Calma 2 Sudoeste 0 -- -- 77
2020-01-11 21:00:00 11.9 0 Calma 6 Noroeste 0 -- -- 74
2020-01-11 20:00:00 12 0 Calma 8 Oeste 0 -- -- 72
2020-01-11 19:00:00 12.7 3 Oeste 11 Sudoeste 0 -- -- 68
2020-01-11 18:00:00 14.2 4 Sudoeste 18 Oeste 0 -- -- 61
2020-01-11 17:00:00 15.6 8 Sudoeste 18 Sudoeste 0 -- -- 56
2020-01-11 16:00:00 17.1 8 Sudoeste 17 Oeste 0 -- -- 51
2020-01-11 15:00:00 17.1 8 Sudoeste 16 Oeste 0 -- -- 53
2020-01-11 14:00:00 16.6 8 Sur 17 Sur 0 -- -- 58
2020-01-11 13:00:00 16.5 6 Sur 14 Sudeste 0 -- -- 59
2020-01-11 12:00:00 16.3 8 Sudeste 13 Sudeste 0 -- -- 65
2020-01-11 11:00:00 15.4 4 Sur 8 Oeste 0 -- -- 65
2020-01-11 10:00:00 12.3 0 Calma 4 Oeste 0 -- -- 77
2020-01-11 09:00:00 11.4 0 Calma 3 Noroeste 0 -- -- 76
2020-01-11 08:00:00 11.1 0 Calma 9 Noroeste 0 -- -- 71
2020-01-11 07:00:00 10.9 3 Noroeste 8 Noroeste 0 -- -- 73
2020-01-11 06:00:00 11.2 3 Noroeste 8 Norte 0 -- -- 74
2020-01-11 05:00:00 11.3 2 Noroeste 4 Noroeste 0 -- -- 76
2020-01-11 04:00:00 11.4 0 Calma 6 Norte 0 -- -- 72
2020-01-11 03:00:00 11.8 0 Calma 8 Noroeste 0 -- -- 64
2020-01-11 02:00:00 12.7 0 Calma 11 Nordeste 0 -- -- 62
2020-01-11 01:00:00 11.7 0 Calma 9 Nordeste 0 -- -- 63
2020-01-11 00:00:00 12.3 2 Norte 13 Nordeste 0 -- -- 61
2020-01-10 23:00:00 12.1 2 Nordeste 8 Nordeste 0 -- -- 63
2020-01-10 22:00:00 12.6 0 Calma 9 Nordeste 0 -- -- 59
2020-01-10 21:00:00 14.1 3 Norte 24 Noroeste 0 -- -- 46
2020-01-10 20:00:00 14.7 7 Norte 30 Norte 0 -- -- 43
2020-01-10 19:00:00 14.6 13 Noroeste 35 Norte 0 -- -- 51
2020-01-10 18:00:00 15.1 14 Noroeste 30 Noroeste 0 -- -- 55
2020-01-10 17:00:00 16.6 11 Norte 31 Norte 0 -- -- 51
2020-01-10 16:00:00 18.2 10 Noroeste 37 Noroeste 0 -- -- 47
2020-01-10 15:00:00 18.6 8 Norte 32 Norte 0 -- -- 46
2020-01-10 14:00:00 17.9 11 Norte 34 Norte 0 -- -- 51
2020-01-10 13:00:00 17.7 12 Norte 34 Norte 0 -- -- 54
2020-01-10 12:00:00 16.4 13 Noroeste 33 Norte 0 -- -- 58
2020-01-10 11:00:00 15.3 12 Norte 30 Noroeste 0 -- -- 64
2020-01-10 10:00:00 13.4 10 Noroeste 27 Noroeste 0 -- -- 71
2020-01-10 09:00:00 12.5 12 Noroeste 31 Norte 0 -- -- 73
2020-01-10 08:00:00 11.8 13 Noroeste 32 Noroeste 0 -- -- 76
2020-01-10 07:00:00 11.9 11 Noroeste 34 Noroeste 0 -- -- 72
2020-01-10 06:00:00 12.3 14 Noroeste 31 Noroeste 0 -- -- 68
2020-01-10 05:00:00 13 13 Noroeste 33 Noroeste 0 -- -- 64
2020-01-10 04:00:00 13.5 15 Noroeste 34 Noroeste 0 -- -- 63
2020-01-10 03:00:00 13.1 15 Noroeste 32 Norte 0 -- -- 64
2020-01-10 02:00:00 12.1 2 Sudoeste 26 Norte 0 -- -- 70
2020-01-10 01:00:00 11.8 3 Noroeste 15 Noroeste 0 -- -- 72
2020-01-10 00:00:00 11.5 4 Noroeste 13 Noroeste 0 -- -- 81
2020-01-09 23:00:00 10.3 0 Calma 4 Noroeste 0 -- -- 85
2020-01-09 22:00:00 10.7 0 Calma 5 Noroeste 0 -- -- 83
2020-01-09 21:00:00 11.7 3 Noroeste 7 Noroeste 0 -- -- 83
2020-01-09 20:00:00 11.6 0 Calma 9 Oeste 0 -- -- 80
2020-01-09 19:00:00 12.6 2 Noroeste 10 Oeste 0 -- -- 80
2020-01-09 18:00:00 13.9 4 Sudoeste 13 Oeste 0 -- -- 75
2020-01-09 17:00:00 15.3 7 Sudoeste 14 Sudoeste 0 -- -- 66
2020-01-09 16:00:00 16.2 4 Sur 12 Sur 0 -- -- 62
2020-01-09 15:00:00 15.8 5 Sur 15 Sudeste 0 -- -- 66
2020-01-09 14:00:00 15.5 4 Sudeste 10 Este 0 -- -- 66
2020-01-09 13:00:00 14.5 3 Nordeste 8 Este 0 -- -- 68
2020-01-09 12:00:00 14.2 3 Este 7 Este 0 -- -- 68
2020-01-09 11:00:00 13.6 2 Nordeste 8 Este 0 -- -- 73
2020-01-09 10:00:00 12.5 0 Calma 5 Nordeste 0 -- -- 84
2020-01-09 09:00:00 11.9 0 Calma 5 Nordeste 0 -- -- 85
2020-01-09 08:00:00 11.7 0 Calma 2 Sur 0 -- -- 87
2020-01-09 07:00:00 11.7 0 Calma 3 Norte 0 -- -- 88
2020-01-09 06:00:00 11.8 0 Calma 2 Norte 0 -- -- 89
2020-01-09 05:00:00 11.6 0 Calma 3 Norte 0 -- -- 90
2020-01-09 04:00:00 11.8 0 Calma 3 Norte 0 -- -- 89
2020-01-09 03:00:00 11.9 0 Calma 2 Noroeste 0 -- -- 88
2020-01-09 02:00:00 12.4 0 Calma 4 Nordeste 0 -- -- 89
2020-01-09 01:00:00 12.2 0 Calma 5 Noroeste 0 -- -- 91
2020-01-09 00:00:00 11.9 0 Calma 5 Nordeste 0 -- -- 92
2020-01-08 23:00:00 11.7 0 Calma 4 Nordeste 0 -- -- 92
2020-01-08 22:00:00 11.5 0 Calma 4 Nordeste 0 -- -- 91
2020-01-08 21:00:00 11.4 0 Calma 3 Norte 0 -- -- 89
2020-01-08 20:00:00 11.8 0 Calma 4 Sudoeste 0 -- -- 87
2020-01-08 19:00:00 12.1 2 Oeste 5 Oeste 0 -- -- 86
2020-01-08 18:00:00 13.3 2 Sudoeste 7 Sudoeste 0 -- -- 79
2020-01-08 17:00:00 14.9 4 Sur 9 Sudeste 0 -- -- 72
2020-01-08 16:00:00 15.6 4 Sur 11 Sur 0 -- -- 70
2020-01-08 15:00:00 15.5 6 Sur 12 Sudeste 0 -- -- 69
2020-01-08 14:00:00 15.3 3 Sudeste 10 Este 0 -- -- 72
2020-01-08 13:00:00 15 5 Sudeste 13 Sudeste 0 -- -- 72
2020-01-08 12:00:00 13.6 6 Sudeste 13 Sudeste 0 -- -- 81
2020-01-08 11:00:00 11.4 3 Este 6 Nordeste 0 -- -- 90
2020-01-08 10:00:00 9.6 0 Calma 6 Sudoeste 0 -- -- 92
2020-01-08 09:00:00 9.7 0 Calma 5 Noroeste 0 -- -- 91
2020-01-08 08:00:00 9.7 2 Oeste 8 Oeste 0 -- -- 83
2020-01-08 07:00:00 9 0 Calma 6 Oeste 0 -- -- 88
2020-01-08 06:00:00 8.5 2 Oeste 3 Oeste 0 -- -- 93
2020-01-08 05:00:00 8.9 2 Oeste 3 Oeste 0 -- -- 93
2020-01-08 04:00:00 9.3 0 Calma 3 Oeste 0 -- -- 93
2020-01-08 03:00:00 9.4 0 Calma 3 Oeste 0 -- -- 94
2020-01-08 02:00:00 9.6 0 Calma 3 Oeste 0 -- -- 92
2020-01-08 01:00:00 9.7 0 Calma 2 Oeste 0 -- -- 91
2020-01-08 00:00:00 10.7 0 Calma 4 Oeste 0 -- -- 91
2020-01-07 23:00:00 10.3 0 Calma 3 Oeste 0 -- -- 90
2020-01-07 22:00:00 10.3 0 Calma 3 Sudoeste 0 -- -- 89
2020-01-07 21:00:00 10.5 0 Calma 4 Noroeste 0 -- -- 88
2020-01-07 20:00:00 10.7 0 Calma 3 Oeste 0 -- -- 87
2020-01-07 19:00:00 11.5 0 Calma 3 Oeste 0 -- -- 84
2020-01-07 18:00:00 13.3 0 Calma 8 Sur 0 -- -- 77
2020-01-07 17:00:00 15 4 Sur 12 Sur 0 -- -- 70
2020-01-07 16:00:00 15.8 5 Sur 12 Sur 0 -- -- 67
2020-01-07 15:00:00 16 5 Sur 11 Sudeste 0 -- -- 64
2020-01-07 14:00:00 16.1 6 Sur 14 Sudeste 0 -- -- 63
2020-01-07 13:00:00 15.8 5 Sudeste 13 Sudeste 0 -- -- 63
2020-01-07 12:00:00 15.5 5 Sur 11 Sur 0 -- -- 65
2020-01-07 11:00:00 14.6 5 Sur 9 Oeste 0 -- -- 68
2020-01-07 10:00:00 12.1 4 Sudoeste 6 Oeste 0 -- -- 79
2020-01-07 09:00:00 10.3 2 Noroeste 5 Sudoeste 0 -- -- 87
2020-01-07 08:00:00 9.4 0 Calma 3 Oeste 0 -- -- 92
2020-01-07 07:00:00 8.4 0 Calma 3 Noroeste 0 -- -- 94
2020-01-07 06:00:00 8.9 2 Noroeste 7 Noroeste 0 -- -- 94
2020-01-07 05:00:00 9.1 2 Noroeste 4 Noroeste 0 -- -- 94
2020-01-07 04:00:00 9.1 0 Calma 2 Sudoeste 0 -- -- 94
2020-01-07 03:00:00 9.3 0 Calma 3 Sudoeste 0 -- -- 94
2020-01-07 02:00:00 9.5 0 Calma 2 Oeste 0 -- -- 93
2020-01-07 01:00:00 9.5 0 Calma 2 Sudoeste 0 -- -- 92
2020-01-07 00:00:00 9.8 0 Calma 2 Sudoeste 0 -- -- 90
2020-01-06 23:00:00 10.1 0 Calma 3 Sudoeste 0 -- -- 89
2020-01-06 22:00:00 10.2 2 Sudoeste 3 Sudoeste 0 -- -- 88
2020-01-06 21:00:00 10.5 2 Oeste 2 Oeste 0 -- -- 85
2020-01-06 20:00:00 11.5 0 Calma 3 Oeste 0 -- -- 81
2020-01-06 19:00:00 12.1 0 Calma 6 Oeste 0 -- -- 79
2020-01-06 18:00:00 13.6 3 Sudoeste 9 Oeste 0 -- -- 72
2020-01-06 17:00:00 15.3 2 Sur 10 Este 0 -- -- 63
2020-01-06 16:00:00 15.3 5 Sudeste 13 Sudeste 0 -- -- 62
2020-01-06 15:00:00 15.4 9 Sudeste 13 Sudeste 0 -- -- 62
2020-01-06 14:00:00 15.8 7 Sudeste 14 Este 0 -- -- 57
2020-01-06 13:00:00 16.2 5 Sudeste 13 Este 0 -- -- 55
2020-01-06 12:00:00 15.8 5 Nordeste 12 Este 0 -- -- 61
2020-01-06 11:00:00 14.3 5 Este 7 Este 0 -- -- 68
2020-01-06 10:00:00 11.5 0 Calma 6 Este 0 -- -- 89